Time;durP1;ratioP1;P1;durP2;ratioP2;P2;SDS_P1;SDS_P2;PMS_P1;PMS_P2;Temp;Humidity;BMP_temperature;BMP_pressure;BME280_temperature;BME280_humidity;BME280_pressure;Samples;Min_cycle;Max_cycle;Signal;HPM_P1;HPM_P2
2021/09/12 00:00:16;;;;;;;;;;;;;;;;;;2107622;28;1388;-83
2021/09/12 00:01:18;;;;;;;;;;;;;;;;;;2099261;28;1235;-83
2021/09/12 00:02:19;;;;;;;;;;;;;;;;;;2098554;28;1739;-83
2021/09/12 00:03:20;;;;;;;;;;;;;;;;;;2108226;28;1971;-82
2021/09/12 00:04:22;;;;;;;;;;;;;;;;;;2091223;28;1366;-82
2021/09/12 00:05:23;;;;;;;;;;;;;;;;;;2093232;28;1070;-82
2021/09/12 00:06:26;;;;;;;;;;;;;;;;;;2107883;28;1421;-82
2021/09/12 00:07:27;;;;;;;;;;;;;;;;;;2107427;28;1351;-82
2021/09/12 00:08:29;;;;;;;;;;;;;;;;;;2107952;28;1698;-83
2021/09/12 00:09:29;;;;;;;;;;;;;;;;;;2107773;28;1341;-84
2021/09/12 00:10:31;;;;;;;;;;;;;;;;;;2091189;28;1708;-85
2021/09/12 00:11:32;;;;;;;;;;;;;;;;;;2083102;28;1334;-83
2021/09/12 00:12:34;;;;;;;;;;;;;;;;;;2090726;28;2114;-82
2021/09/12 00:13:36;;;;;;;;;;;;;;;;;;2099574;28;1488;-83
2021/09/12 00:14:38;;;;;;;;;;;;;;;;;;2107945;28;1273;-82
2021/09/12 00:15:42;;;;;;;;;;;;;;;;;;2100580;28;1877;-83
2021/09/12 00:16:44;;;;;;;;;;;;;;;;;;2099422;28;1441;-84
2021/09/12 00:17:45;;;;;;;;;;;;;;;;;;2099241;28;1357;-83
2021/09/12 00:18:46;;;;;;;;;;;;;;;;;;2082964;28;1231;-84
2021/09/12 00:19:47;;;;;;;;;;;;;;;;;;2099932;28;1207;-84
2021/09/12 00:20:50;;;;;;;;;;;;;;;;;;2099868;28;1356;-83
2021/09/12 00:21:51;;;;;;;;;;;;;;;;;;2099029;28;1453;-84
2021/09/12 00:22:53;;;;;;;;;;;;;;;;;;2098694;28;1302;-83
2021/09/12 00:23:56;;;;;;;;;;;;;;;;;;2090924;28;1910;-84
2021/09/12 00:24:57;;;;;;;;;;;;;;;;;;2107571;28;1302;-84
2021/09/12 00:25:59;;;;;;;;;;;;;;;;;;2108088;28;1292;-84
2021/09/12 00:27:02;;;;;;;;;;;;;;;;;;2091151;28;1319;-85
2021/09/12 00:28:03;;;;;;;;;;;;;;;;;;2091467;28;1302;-84
2021/09/12 00:29:06;;;;;;;;;;;;;;;;;;2099821;28;1107;-84
2021/09/12 00:30:07;;;;;;;;;;;;;;;;;;2099121;28;1211;-84
2021/09/12 00:31:10;;;;;;;;;;;;;;;;;;2090963;28;1304;-84
2021/09/12 00:32:12;;;;;;;;;;;;;;;;;;2088649;28;1865;-84
2021/09/12 00:33:14;;;;;;;;;;;;;;;;;;2083711;28;1220;-85
2021/09/12 00:34:15;;;;;;;;;;;;;;;;;;2099101;28;1411;-85
2021/09/12 00:35:18;;;;;;;;;;;;;;;;;;2083087;28;1254;-84
2021/09/12 00:36:18;;;;;;;;;;;;;;;;;;2090996;28;1227;-84
2021/09/12 00:37:20;;;;;;;;;;;;;;;;;;2102325;28;1397;-84
2021/09/12 00:38:22;;;;;;;;;;;;;;;;;;2108206;28;1351;-84
2021/09/12 00:39:25;;;;;;;;;;;;;;;;;;2099183;28;1298;-85
2021/09/12 00:40:26;;;;;;;;;;;;;;;;;;2099556;28;1343;-84
2021/09/12 00:41:28;;;;;;;;;;;;;;;;;;2116294;28;1237;-84
2021/09/12 00:42:28;;;;;;;;;;;;;;;;;;2115792;28;1339;-84
2021/09/12 00:43:30;;;;;;;;;;;;;;;;;;2099295;28;1910;-84
2021/09/12 00:44:31;;;;;;;;;;;;;;;;;;2091166;28;1258;-84
2021/09/12 00:45:33;;;;;;;;;;;;;;;;;;2099171;28;1384;-84
2021/09/12 00:46:37;;;;;;;;;;;;;;;;;;2107635;28;1290;-84
2021/09/12 00:47:39;;;;;;;;;;;;;;;;;;2106609;28;1256;-84
2021/09/12 00:48:42;;;;;;;;;;;;;;;;;;2107928;28;1255;-84
2021/09/12 00:49:44;;;;;;;;;;;;;;;;;;2116240;28;1197;-84
2021/09/12 00:50:44;;;;;;;;;;;;;;;;;;2099739;28;2005;-83
2021/09/12 00:51:48;;;;;;;;;;;;;;;;;;2098892;28;1228;-84
2021/09/12 00:52:50;;;;;;;;;;;;;;;;;;2099717;28;2069;-84
2021/09/12 00:53:53;;;;;;;;;;;;;;;;;;2099367;28;1460;-84
2021/09/12 00:54:54;;;;;;;;;;;;;;;;;;2091464;28;1240;-84
2021/09/12 00:56:00;;;;;;;;;;;;;;;;;;2098940;28;1242;-84
2021/09/12 00:57:02;;;;;;;;;;;;;;;;;;2083796;28;1264;-84
2021/09/12 00:58:04;;;;;;;;;;;;;;;;;;2082894;28;1270;-84
2021/09/12 00:59:06;;;;;;;;;;;;;;;;;;2099587;28;1222;-84
2021/09/12 01:00:08;;;;;;;;;;;;;;;;;;2099428;28;1276;-83
2021/09/12 01:01:10;;;;;;;;;;;;;;;;;;2107329;28;1199;-84
2021/09/12 01:02:12;;;;;;;;;;;;;;;;;;2089528;28;1779;-84
2021/09/12 01:03:14;;;;;;;;;;;;;;;;;;2090999;28;1969;-84
2021/09/12 01:04:15;;;;;;;;;;;;;;;;;;2091114;28;1315;-84
2021/09/12 01:05:17;;;;;;;;;;;;;;;;;;2091270;28;1465;-83
2021/09/12 01:06:18;;;;;;;;;;;;;;;;;;2107251;28;1297;-83
2021/09/12 01:07:19;;;;;;;;;;;;;;;;;;2107305;28;1895;-84
2021/09/12 01:08:20;;;;;;;;;;;;;;;;;;2098775;28;1323;-84
2021/09/12 01:09:22;;;;;;;;;;;;;;;;;;2091316;28;1293;-84
2021/09/12 01:10:23;;;;;;;;;;;;;;;;;;2091032;28;1219;-84
2021/09/12 01:11:25;;;;;;;;;;;;;;;;;;2082709;28;1366;-85
2021/09/12 01:12:26;;;;;;;;;;;;;;;;;;2086667;28;1997;-84
2021/09/12 01:13:27;;;;;;;;;;;;;;;;;;2109511;28;1311;-84
2021/09/12 01:14:29;;;;;;;;;;;;;;;;;;2092584;28;1234;-84
2021/09/12 01:15:32;;;;;;;;;;;;;;;;;;2101177;28;1222;-84
2021/09/12 01:16:32;;;;;;;;;;;;;;;;;;2101077;28;1299;-84
2021/09/12 01:17:36;;;;;;;;;;;;;;;;;;2084320;28;1242;-85
2021/09/12 01:18:37;;;;;;;;;;;;;;;;;;2093436;28;1034;-84
2021/09/12 01:19:39;;;;;;;;;;;;;;;;;;2101164;28;1370;-84
2021/09/12 01:20:41;;;;;;;;;;;;;;;;;;2092612;28;1415;-85
2021/09/12 01:21:42;;;;;;;;;;;;;;;;;;2101375;28;1262;-85
2021/09/12 01:22:45;;;;;;;;;;;;;;;;;;2103160;28;1215;-84
2021/09/12 01:23:46;;;;;;;;;;;;;;;;;;2084554;28;1969;-84
2021/09/12 01:24:49;;;;;;;;;;;;;;;;;;2093060;28;1521;-84
2021/09/12 01:25:54;;;;;;;;;;;;;;;;;;2092525;28;1242;-84
2021/09/12 01:26:56;;;;;;;;;;;;;;;;;;2093268;28;1320;-84
2021/09/12 01:27:58;;;;;;;;;;;;;;;;;;2092701;28;1316;-84
2021/09/12 01:29:00;;;;;;;;;;;;;;;;;;2093059;28;1330;-85
2021/09/12 01:30:01;;;;;;;;;;;;;;;;;;2092260;28;1199;-85
2021/09/12 01:31:03;;;;;;;;;;;;;;;;;;2084581;28;1223;-85
2021/09/12 01:32:04;;;;;;;;;;;;;;;;;;2092671;28;2031;-85
2021/09/12 01:33:06;;;;;;;;;;;;;;;;;;2101139;28;1262;-85
2021/09/12 01:34:08;;;;;;;;;;;;;;;;;;2109266;28;1290;-85
2021/09/12 01:35:10;;;;;;;;;;;;;;;;;;2095248;28;1322;-85
2021/09/12 01:36:11;;;;;;;;;;;;;;;;;;2092450;28;1317;-84
2021/09/12 01:37:13;;;;;;;;;;;;;;;;;;2099876;28;1331;-85
2021/09/12 01:38:14;;;;;;;;;;;;;;;;;;2092228;28;1583;-85
2021/09/12 01:39:16;;;;;;;;;;;;;;;;;;2101278;28;1351;-85
2021/09/12 01:40:19;;;;;;;;;;;;;;;;;;2092556;28;1371;-84
2021/09/12 01:41:20;;;;;;;;;;;;;;;;;;2085238;28;1251;-85
2021/09/12 01:42:22;;;;;;;;;;;;;;;;;;2103536;28;1231;-85
2021/09/12 01:43:23;;;;;;;;;;;;;;;;;;2109009;28;1226;-84
2021/09/12 01:44:25;;;;;;;;;;;;;;;;;;2101018;28;2022;-84
2021/09/12 01:45:26;;;;;;;;;;;;;;;;;;2092811;28;1295;-84
2021/09/12 01:46:28;;;;;;;;;;;;;;;;;;2092788;28;1263;-84
2021/09/12 01:47:30;;;;;;;;;;;;;;;;;;2096475;28;1326;-85
2021/09/12 01:48:31;;;;;;;;;;;;;;;;;;2096085;28;1723;-84
2021/09/12 01:49:32;;;;;;;;;;;;;;;;;;2100458;28;1361;-84
2021/09/12 01:50:33;;;;;;;;;;;;;;;;;;2094370;28;2064;-84
2021/09/12 01:51:35;;;;;;;;;;;;;;;;;;2108380;28;1431;-84
2021/09/12 01:52:36;;;;;;;;;;;;;;;;;;2108432;28;1305;-84
2021/09/12 01:53:39;;;;;;;;;;;;;;;;;;2100912;28;1309;-84
2021/09/12 01:54:39;;;;;;;;;;;;;;;;;;2101211;28;1497;-83
2021/09/12 01:55:43;;;;;;;;;;;;;;;;;;2108576;28;1253;-83
2021/09/12 01:56:44;;;;;;;;;;;;;;;;;;2108956;28;1234;-83
2021/09/12 01:57:46;;;;;;;;;;;;;;;;;;2091541;28;1211;-83
2021/09/12 01:58:47;;;;;;;;;;;;;;;;;;2100850;28;1302;-84
2021/09/12 01:59:49;;;;;;;;;;;;;;;;;;2100340;28;1317;-83
2021/09/12 02:00:50;;;;;;;;;;;;;;;;;;2084401;28;1373;-84
2021/09/12 02:01:52;;;;;;;;;;;;;;;;;;2092484;28;1261;-83
2021/09/12 02:02:52;;;;;;;;;;;;;;;;;;2100188;28;1337;-83
2021/09/12 02:03:55;;;;;;;;;;;;;;;;;;2100055;28;1962;-83
2021/09/12 02:04:56;;;;;;;;;;;;;;;;;;2100093;28;1330;-83
2021/09/12 02:05:59;;;;;;;;;;;;;;;;;;2092618;28;1349;-83
2021/09/12 02:07:00;;;;;;;;;;;;;;;;;;2100653;28;1342;-83
2021/09/12 02:08:03;;;;;;;;;;;;;;;;;;2100638;28;1290;-83
2021/09/12 02:09:04;;;;;;;;;;;;;;;;;;2100755;28;1381;-83
2021/09/12 02:10:06;;;;;;;;;;;;;;;;;;2100639;28;1378;-84
2021/09/12 02:11:09;;;;;;;;;;;;;;;;;;2109249;28;1247;-84
2021/09/12 02:12:10;;;;;;;;;;;;;;;;;;2100057;28;1276;-84
2021/09/12 02:13:11;;;;;;;;;;;;;;;;;;2083956;28;1312;-84
2021/09/12 02:14:13;;;;;;;;;;;;;;;;;;2083712;28;1270;-83
2021/09/12 02:15:14;;;;;;;;;;;;;;;;;;2079723;28;2008;-82
2021/09/12 02:16:17;;;;;;;;;;;;;;;;;;2083620;28;1315;-84
2021/09/12 02:17:18;;;;;;;;;;;;;;;;;;2091857;28;1243;-84
2021/09/12 02:18:20;;;;;;;;;;;;;;;;;;2092371;28;1342;-84
2021/09/12 02:19:21;;;;;;;;;;;;;;;;;;2091996;28;1248;-84
2021/09/12 02:20:23;;;;;;;;;;;;;;;;;;2091585;28;1354;-84
2021/09/12 02:21:23;;;;;;;;;;;;;;;;;;2083803;28;1220;-84
2021/09/12 02:22:25;;;;;;;;;;;;;;;;;;2087205;28;1739;-83
2021/09/12 02:23:28;;;;;;;;;;;;;;;;;;2100652;28;1190;-84
2021/09/12 02:24:30;;;;;;;;;;;;;;;;;;2100817;28;1977;-84
2021/09/12 02:25:30;;;;;;;;;;;;;;;;;;2106394;28;1303;-84
2021/09/12 02:26:34;;;;;;;;;;;;;;;;;;2092621;28;1196;-84
2021/09/12 02:27:35;;;;;;;;;;;;;;;;;;2092327;28;1570;-84
2021/09/12 02:28:36;;;;;;;;;;;;;;;;;;2091725;28;1466;-84
2021/09/12 02:29:37;;;;;;;;;;;;;;;;;;2100074;28;1243;-84
2021/09/12 02:30:39;;;;;;;;;;;;;;;;;;2084562;28;2084;-84
2021/09/12 02:31:40;;;;;;;;;;;;;;;;;;2100420;28;1241;-84
2021/09/12 02:32:42;;;;;;;;;;;;;;;;;;2108482;28;1266;-84
2021/09/12 02:33:42;;;;;;;;;;;;;;;;;;2100633;28;1339;-84
2021/09/12 02:34:45;;;;;;;;;;;;;;;;;;2092369;28;1223;-84
2021/09/12 02:35:45;;;;;;;;;;;;;;;;;;2100629;28;1324;-84
2021/09/12 02:36:47;;;;;;;;;;;;;;;;;;2108442;28;1384;-84
2021/09/12 02:37:48;;;;;;;;;;;;;;;;;;2106617;28;1871;-84
2021/09/12 02:38:51;;;;;;;;;;;;;;;;;;2117366;28;1367;-84
2021/09/12 02:39:53;;;;;;;;;;;;;;;;;;2116399;28;2129;-83
2021/09/12 02:40:53;;;;;;;;;;;;;;;;;;2117318;28;1254;-84
2021/09/12 02:41:57;;;;;;;;;;;;;;;;;;2108639;28;1258;-84
2021/09/12 02:42:58;;;;;;;;;;;;;;;;;;2100051;28;1278;-84
2021/09/12 02:44:00;;;;;;;;;;;;;;;;;;2091594;28;1882;-84
2021/09/12 02:45:00;;;;;;;;;;;;;;;;;;2091766;28;1346;-84
2021/09/12 02:46:02;;;;;;;;;;;;;;;;;;2091860;28;1367;-84
2021/09/12 02:47:03;;;;;;;;;;;;;;;;;;2092018;28;1390;-84
2021/09/12 02:48:05;;;;;;;;;;;;;;;;;;2108703;28;1420;-84
2021/09/12 02:49:06;;;;;;;;;;;;;;;;;;2116762;28;1298;-84
2021/09/12 02:50:08;;;;;;;;;;;;;;;;;;2108232;28;1196;-84
2021/09/12 02:51:09;;;;;;;;;;;;;;;;;;2108997;28;1222;-84
2021/09/12 02:52:11;;;;;;;;;;;;;;;;;;2115173;28;1230;-84
2021/09/12 02:53:11;;;;;;;;;;;;;;;;;;2092235;28;1497;-84
2021/09/12 02:54:13;;;;;;;;;;;;;;;;;;2100464;28;1346;-85
2021/09/12 02:55:15;;;;;;;;;;;;;;;;;;2108185;28;1453;-85
2021/09/12 02:56:17;;;;;;;;;;;;;;;;;;2092172;28;1240;-85
2021/09/12 02:57:20;;;;;;;;;;;;;;;;;;2091881;28;1351;-85
2021/09/12 02:58:21;;;;;;;;;;;;;;;;;;2108763;28;1390;-85
2021/09/12 02:59:22;;;;;;;;;;;;;;;;;;2108304;28;1225;-84
2021/09/12 03:00:24;;;;;;;;;;;;;;;;;;2100277;28;1413;-84
2021/09/12 03:01:25;;;;;;;;;;;;;;;;;;2091757;28;1265;-84
2021/09/12 03:02:27;;;;;;;;;;;;;;;;;;2108653;28;1190;-85
2021/09/12 03:03:28;;;;;;;;;;;;;;;;;;2108465;28;1333;-84
2021/09/12 03:04:29;;;;;;;;;;;;;;;;;;2092257;28;1972;-84
2021/09/12 03:05:30;;;;;;;;;;;;;;;;;;2108250;28;1217;-84
2021/09/12 03:06:33;;;;;;;;;;;;;;;;;;2108962;28;1257;-84
2021/09/12 03:07:33;;;;;;;;;;;;;;;;;;2104674;28;1773;-84
2021/09/12 03:08:35;;;;;;;;;;;;;;;;;;2092282;28;1317;-84
2021/09/12 03:09:36;;;;;;;;;;;;;;;;;;2100461;28;1273;-84
2021/09/12 03:10:38;;;;;;;;;;;;;;;;;;2100463;28;1369;-84
2021/09/12 03:11:39;;;;;;;;;;;;;;;;;;2091592;28;1321;-84
2021/09/12 03:12:42;;;;;;;;;;;;;;;;;;2108842;28;1331;-85
2021/09/12 03:13:43;;;;;;;;;;;;;;;;;;2108232;28;1177;-85
2021/09/12 03:14:45;;;;;;;;;;;;;;;;;;2108784;28;1217;-84
2021/09/12 03:15:45;;;;;;;;;;;;;;;;;;2099457;28;2231;-84
2021/09/12 03:16:48;;;;;;;;;;;;;;;;;;2091876;28;1352;-85
2021/09/12 03:17:49;;;;;;;;;;;;;;;;;;2100142;28;1302;-84
2021/09/12 03:18:51;;;;;;;;;;;;;;;;;;2117162;28;1356;-84
2021/09/12 03:19:52;;;;;;;;;;;;;;;;;;2099861;28;1265;-84
2021/09/12 03:20:54;;;;;;;;;;;;;;;;;;2100264;28;1238;-84
2021/09/12 03:21:54;;;;;;;;;;;;;;;;;;2116945;28;1428;-84
2021/09/12 03:22:57;;;;;;;;;;;;;;;;;;2100283;28;1393;-84
2021/09/12 03:23:57;;;;;;;;;;;;;;;;;;2099525;28;1236;-84
2021/09/12 03:24:59;;;;;;;;;;;;;;;;;;2099669;28;1945;-84
2021/09/12 03:26:00;;;;;;;;;;;;;;;;;;2083718;28;1179;-84
2021/09/12 03:27:02;;;;;;;;;;;;;;;;;;2099722;28;1531;-84
2021/09/12 03:28:06;;;;;;;;;;;;;;;;;;2100019;28;1254;-84
2021/09/12 03:29:07;;;;;;;;;;;;;;;;;;2083918;28;1320;-84
2021/09/12 03:30:09;;;;;;;;;;;;;;;;;;2099648;28;1444;-84
2021/09/12 03:31:10;;;;;;;;;;;;;;;;;;2099870;28;1380;-84
2021/09/12 03:32:12;;;;;;;;;;;;;;;;;;2093461;28;1115;-84
2021/09/12 03:33:15;;;;;;;;;;;;;;;;;;2099689;28;1487;-84
2021/09/12 03:34:16;;;;;;;;;;;;;;;;;;2108817;28;1325;-84
2021/09/12 03:35:18;;;;;;;;;;;;;;;;;;2107681;28;1399;-84
2021/09/12 03:36:20;;;;;;;;;;;;;;;;;;2108117;28;1327;-84
2021/09/12 03:37:21;;;;;;;;;;;;;;;;;;2108678;28;1213;-84
2021/09/12 03:38:23;;;;;;;;;;;;;;;;;;2091144;28;1278;-85
2021/09/12 03:39:24;;;;;;;;;;;;;;;;;;2108350;28;1289;-85
2021/09/12 03:40:25;;;;;;;;;;;;;;;;;;2108496;28;1228;-91
2021/09/12 03:41:27;;;;;;;;;;;;;;;;;;2092243;28;1412;-91
2021/09/12 03:42:29;;;;;;;;;;;;;;;;;;2099499;28;1316;-91
2021/09/12 03:43:31;;;;;;;;;;;;;;;;;;2107960;28;1353;-90
2021/09/12 03:44:33;;;;;;;;;;;;;;;;;;2091396;28;1906;-91
2021/09/12 03:45:35;;;;;;;;;;;;;;;;;;2091945;28;1192;-90
2021/09/12 03:46:37;;;;;;;;;;;;;;;;;;2091848;28;1225;-90
2021/09/12 03:47:38;;;;;;;;;;;;;;;;;;2083078;28;1403;-88
2021/09/12 03:48:43;;;;;;;;;;;;;;;;;;2091786;28;1094;-88
2021/09/12 03:49:44;;;;;;;;;;;;;;;;;;2100048;28;1308;-88
2021/09/12 03:50:46;;;;;;;;;;;;;;;;;;2091802;28;1219;-88
2021/09/12 03:51:46;;;;;;;;;;;;;;;;;;2099562;28;1393;-88
2021/09/12 03:52:48;;;;;;;;;;;;;;;;;;2099745;28;1430;-91
2021/09/12 03:53:50;;;;;;;;;;;;;;;;;;2083211;28;1352;-90
2021/09/12 03:54:52;;;;;;;;;;;;;;;;;;2083605;28;1364;-90
2021/09/12 03:55:53;;;;;;;;;;;;;;;;;;2083343;28;1239;-90
2021/09/12 03:56:56;;;;;;;;;;;;;;;;;;2091605;28;1262;-90
2021/09/12 03:57:57;;;;;;;;;;;;;;;;;;2099468;28;2071;-90
2021/09/12 03:59:01;;;;;;;;;;;;;;;;;;2091620;28;1314;-91
2021/09/12 04:00:04;;;;;;;;;;;;;;;;;;2085166;28;2042;-91
2021/09/12 04:01:14;;;;;;;;;;;;;;;;;;2100204;28;803;-91
2021/09/12 04:02:15;;;;;;;;;;;;;;;;;;2108272;28;1330;-91
2021/09/12 04:03:17;;;;;;;;;;;;;;;;;;2108245;28;1267;-91
2021/09/12 04:04:19;;;;;;;;;;;;;;;;;;2091827;28;1914;-91
2021/09/12 04:05:21;;;;;;;;;;;;;;;;;;2091941;28;1219;-91
2021/09/12 04:06:22;;;;;;;;;;;;;;;;;;2108082;28;1334;-90
2021/09/12 04:07:24;;;;;;;;;;;;;;;;;;2112706;28;1890;-91
2021/09/12 04:08:28;;;;;;;;;;;;;;;;;;2091411;28;1192;-91
2021/09/12 04:09:32;;;;;;;;;;;;;;;;;;2092203;28;1345;-91
2021/09/12 04:10:33;;;;;;;;;;;;;;;;;;2091670;28;1294;-92
2021/09/12 04:11:36;;;;;;;;;;;;;;;;;;2091849;28;1433;-91
2021/09/12 04:12:39;;;;;;;;;;;;;;;;;;2092281;28;1186;-89
2021/09/12 04:13:41;;;;;;;;;;;;;;;;;;2108444;28;1281;-89
2021/09/12 04:14:43;;;;;;;;;;;;;;;;;;2107851;28;1223;-89
2021/09/12 04:15:45;;;;;;;;;;;;;;;;;;2108180;28;1262;-89
2021/09/12 04:16:47;;;;;;;;;;;;;;;;;;2116128;28;1284;-89
2021/09/12 04:17:51;;;;;;;;;;;;;;;;;;2107751;28;2053;-89
2021/09/12 04:18:53;;;;;;;;;;;;;;;;;;2092076;28;845;-89
2021/09/12 04:19:54;;;;;;;;;;;;;;;;;;2098286;28;2061;-89
2021/09/12 04:20:56;;;;;;;;;;;;;;;;;;2108367;28;1395;-89
2021/09/12 04:21:57;;;;;;;;;;;;;;;;;;2108088;28;1138;-89
2021/09/12 04:22:59;;;;;;;;;;;;;;;;;;2083435;28;1200;-89
2021/09/12 04:24:00;;;;;;;;;;;;;;;;;;2083063;28;1296;-89
2021/09/12 04:25:02;;;;;;;;;;;;;;;;;;2091124;28;1906;-89
2021/09/12 04:26:03;;;;;;;;;;;;;;;;;;2091313;28;1217;-89
2021/09/12 04:27:05;;;;;;;;;;;;;;;;;;2099221;28;2017;-89
2021/09/12 04:28:07;;;;;;;;;;;;;;;;;;2091720;28;1239;-89
2021/09/12 04:29:09;;;;;;;;;;;;;;;;;;2107932;28;1489;-89
2021/09/12 04:30:14;;;;;;;;;;;;;;;;;;2107672;28;1250;-89
2021/09/12 04:31:16;;;;;;;;;;;;;;;;;;2091378;28;1299;-89
2021/09/12 04:32:18;;;;;;;;;;;;;;;;;;2082985;28;1261;-89
2021/09/12 04:33:20;;;;;;;;;;;;;;;;;;2083060;28;1220;-90
2021/09/12 04:34:20;;;;;;;;;;;;;;;;;;2083340;28;1269;-89
2021/09/12 04:35:23;;;;;;;;;;;;;;;;;;2096434;28;1103;-89
2021/09/12 04:36:24;;;;;;;;;;;;;;;;;;2099361;28;1179;-89
2021/09/12 04:37:27;;;;;;;;;;;;;;;;;;2099063;28;1358;-89
2021/09/12 04:38:28;;;;;;;;;;;;;;;;;;2099621;28;1328;-89
2021/09/12 04:39:30;;;;;;;;;;;;;;;;;;2099610;28;1219;-89
2021/09/12 04:40:32;;;;;;;;;;;;;;;;;;2107635;28;1294;-89
2021/09/12 04:41:35;;;;;;;;;;;;;;;;;;2099436;28;1226;-89
2021/09/12 04:42:36;;;;;;;;;;;;;;;;;;2096403;28;1376;-89
2021/09/12 04:43:40;;;;;;;;;;;;;;;;;;2091603;28;1285;-89
2021/09/12 04:44:41;;;;;;;;;;;;;;;;;;2108180;28;1895;-91
2021/09/12 04:45:45;;;;;;;;;;;;;;;;;;2107529;28;1259;-90
2021/09/12 04:46:48;;;;;;;;;;;;;;;;;;2099226;28;897;-91
2021/09/12 04:47:59;;;;;;;;;;;;;;;;;;2099602;28;1835;-91
2021/09/12 04:49:03;;;;;;;;;;;;;;;;;;2099850;28;1340;-91
2021/09/12 04:50:06;;;;;;;;;;;;;;;;;;2091768;28;1329;-91
2021/09/12 04:51:07;;;;;;;;;;;;;;;;;;2091341;28;1228;-92
2021/09/12 04:52:09;;;;;;;;;;;;;;;;;;2090945;28;1263;-92
2021/09/12 04:53:09;;;;;;;;;;;;;;;;;;2091180;28;1306;-91
2021/09/12 04:54:14;;;;;;;;;;;;;;;;;;2083277;28;1410;-92
2021/09/12 04:55:15;;;;;;;;;;;;;;;;;;2100235;28;1270;-91
2021/09/12 04:56:17;;;;;;;;;;;;;;;;;;2115955;28;1235;-92
2021/09/12 04:57:18;;;;;;;;;;;;;;;;;;2108139;28;1414;-91
2021/09/12 04:58:20;;;;;;;;;;;;;;;;;;2099266;28;1223;-92
2021/09/12 04:59:21;;;;;;;;;;;;;;;;;;2099354;28;1235;-92
2021/09/12 05:00:22;;;;;;;;;;;;;;;;;;2091261;28;1235;-88
2021/09/12 05:01:25;;;;;;;;;;;;;;;;;;2091360;28;1218;-89
2021/09/12 05:02:29;;;;;;;;;;;;;;;;;;2091388;28;1865;-88
2021/09/12 05:03:30;;;;;;;;;;;;;;;;;;2091157;28;1306;-89
2021/09/12 05:04:32;;;;;;;;;;;;;;;;;;2108271;28;1226;-89
2021/09/12 05:05:35;;;;;;;;;;;;;;;;;;2107298;28;1898;-89
2021/09/12 05:06:36;;;;;;;;;;;;;;;;;;2099298;28;1439;-88
2021/09/12 05:07:39;;;;;;;;;;;;;;;;;;2099533;28;1337;-89
2021/09/12 05:08:39;;;;;;;;;;;;;;;;;;2108260;28;1206;-89
2021/09/12 05:09:42;;;;;;;;;;;;;;;;;;2109041;28;1325;-88
2021/09/12 05:10:43;;;;;;;;;;;;;;;;;;2092283;28;1187;-89
2021/09/12 05:11:45;;;;;;;;;;;;;;;;;;2100436;28;1191;-89
2021/09/12 05:12:46;;;;;;;;;;;;;;;;;;2106049;28;1235;-89
2021/09/12 05:13:48;;;;;;;;;;;;;;;;;;2091689;28;1239;-88
2021/09/12 05:14:49;;;;;;;;;;;;;;;;;;2083986;28;1178;-88
2021/09/12 05:15:51;;;;;;;;;;;;;;;;;;2092195;28;1338;-91
2021/09/12 05:16:57;;;;;;;;;;;;;;;;;;2088391;28;1216;-88
2021/09/12 05:17:59;;;;;;;;;;;;;;;;;;2095733;28;1989;-88
2021/09/12 05:19:00;;;;;;;;;;;;;;;;;;2105021;28;1173;-88
2021/09/12 05:20:06;;;;;;;;;;;;;;;;;;2113761;28;1311;-88
2021/09/12 05:21:14;;;;;;;;;;;;;;;;;;2121478;28;1322;-87
2021/09/12 05:22:21;;;;;;;;;;;;;;;;;;2104945;28;1863;-88
2021/09/12 05:23:24;;;;;;;;;;;;;;;;;;2089003;28;1382;-87
2021/09/12 05:24:25;;;;;;;;;;;;;;;;;;2093306;28;1155;-90
2021/09/12 05:25:28;;;;;;;;;;;;;;;;;;2104795;28;1914;-89
2021/09/12 05:26:29;;;;;;;;;;;;;;;;;;2107967;28;1234;-90
2021/09/12 05:27:31;;;;;;;;;;;;;;;;;;2099170;28;1843;-89
2021/09/12 05:28:34;;;;;;;;;;;;;;;;;;2099211;28;1211;-90
2021/09/12 05:29:36;;;;;;;;;;;;;;;;;;2099600;28;911;-90
2021/09/12 05:30:39;;;;;;;;;;;;;;;;;;2091302;28;1199;-90
2021/09/12 05:31:41;;;;;;;;;;;;;;;;;;2099544;28;1411;-90
2021/09/12 05:32:46;;;;;;;;;;;;;;;;;;2107709;28;1905;-89
2021/09/12 05:33:48;;;;;;;;;;;;;;;;;;2098942;28;839;-90
2021/09/12 05:34:49;;;;;;;;;;;;;;;;;;2092188;28;1214;-89
2021/09/12 05:35:50;;;;;;;;;;;;;;;;;;2090604;28;1267;-90
2021/09/12 05:36:51;;;;;;;;;;;;;;;;;;2083096;28;1231;-91
2021/09/12 05:37:53;;;;;;;;;;;;;;;;;;2089352;28;1997;-89
2021/09/12 05:38:54;;;;;;;;;;;;;;;;;;2108325;28;1270;-89
2021/09/12 05:39:56;;;;;;;;;;;;;;;;;;2107410;28;2051;-90
2021/09/12 05:40:57;;;;;;;;;;;;;;;;;;2107445;28;1302;-89
2021/09/12 05:42:00;;;;;;;;;;;;;;;;;;2091075;28;1314;-90
2021/09/12 05:43:01;;;;;;;;;;;;;;;;;;2083821;28;1383;-90
2021/09/12 05:44:03;;;;;;;;;;;;;;;;;;2090581;28;1389;-89
2021/09/12 05:45:05;;;;;;;;;;;;;;;;;;2091335;28;1913;-90
2021/09/12 05:46:07;;;;;;;;;;;;;;;;;;2091003;28;1229;-90
2021/09/12 05:47:08;;;;;;;;;;;;;;;;;;2089602;28;1975;-89
2021/09/12 05:48:11;;;;;;;;;;;;;;;;;;2090900;28;1263;-90
2021/09/12 05:49:13;;;;;;;;;;;;;;;;;;2105917;28;1720;-90
2021/09/12 05:50:14;;;;;;;;;;;;;;;;;;2091051;28;1327;-90
2021/09/12 05:51:16;;;;;;;;;;;;;;;;;;2074452;28;1336;-90
2021/09/12 05:52:17;;;;;;;;;;;;;;;;;;2082526;28;1256;-90
2021/09/12 05:53:20;;;;;;;;;;;;;;;;;;2083329;28;1321;-89
2021/09/12 05:54:21;;;;;;;;;;;;;;;;;;2082871;28;1303;-89
2021/09/12 05:55:23;;;;;;;;;;;;;;;;;;2082428;28;1240;-90
2021/09/12 05:56:27;;;;;;;;;;;;;;;;;;2083052;28;1225;-89
2021/09/12 05:57:31;;;;;;;;;;;;;;;;;;2079171;28;1331;-89
2021/09/12 05:58:32;;;;;;;;;;;;;;;;;;2100253;28;1467;-89
2021/09/12 05:59:34;;;;;;;;;;;;;;;;;;2101015;28;1238;-90
2021/09/12 06:00:38;;;;;;;;;;;;;;;;;;2101640;28;1211;-89
2021/09/12 06:01:39;;;;;;;;;;;;;;;;;;2100943;28;1294;-89
2021/09/12 06:02:41;;;;;;;;;;;;;;;;;;2095956;28;1337;-89
2021/09/12 06:03:43;;;;;;;;;;;;;;;;;;2108801;28;1257;-92
2021/09/12 06:04:45;;;;;;;;;;;;;;;;;;2109496;28;1306;-92
2021/09/12 06:05:48;;;;;;;;;;;;;;;;;;2092284;28;1967;-92
2021/09/12 06:06:52;;;;;;;;;;;;;;;;;;2108978;28;1357;-92
2021/09/12 06:07:57;;;;;;;;;;;;;;;;;;2084384;28;1322;-92
2021/09/12 06:08:57;;;;;;;;;;;;;;;;;;2076909;28;1163;-92
2021/09/12 06:10:05;;;;;;;;;;;;;;;;;;2085447;28;2042;-92
2021/09/12 06:11:10;;;;;;;;;;;;;;;;;;2092942;28;1455;-93
2021/09/12 06:12:12;;;;;;;;;;;;;;;;;;2084927;28;1199;-92
2021/09/12 06:13:13;;;;;;;;;;;;;;;;;;2101095;28;1374;-92
2021/09/12 06:14:15;;;;;;;;;;;;;;;;;;2109315;28;1309;-89
2021/09/12 06:15:16;;;;;;;;;;;;;;;;;;2100458;28;1329;-90
2021/09/12 06:16:18;;;;;;;;;;;;;;;;;;2092124;28;1279;-89
2021/09/12 06:17:18;;;;;;;;;;;;;;;;;;2092430;28;1207;-89
2021/09/12 06:18:20;;;;;;;;;;;;;;;;;;2100671;28;1267;-90
2021/09/12 06:19:23;;;;;;;;;;;;;;;;;;2108429;28;1671;-89
2021/09/12 06:20:25;;;;;;;;;;;;;;;;;;2116745;28;1201;-88
2021/09/12 06:21:26;;;;;;;;;;;;;;;;;;2100877;28;1217;-89
2021/09/12 06:22:30;;;;;;;;;;;;;;;;;;2096996;28;1249;-90
2021/09/12 06:23:33;;;;;;;;;;;;;;;;;;2092423;28;1430;-89
2021/09/12 06:24:35;;;;;;;;;;;;;;;;;;2092321;28;1333;-90
2021/09/12 06:25:36;;;;;;;;;;;;;;;;;;2091848;28;2049;-89
2021/09/12 06:26:43;;;;;;;;;;;;;;;;;;2092251;28;1208;-90
2021/09/12 06:27:45;;;;;;;;;;;;;;;;;;2101860;28;1306;-93
2021/09/12 06:28:48;;;;;;;;;;;;;;;;;;2108597;28;1217;-91
2021/09/12 06:29:50;;;;;;;;;;;;;;;;;;2108884;28;1328;-90
2021/09/12 06:30:51;;;;;;;;;;;;;;;;;;2116797;28;1358;-90
2021/09/12 06:31:54;;;;;;;;;;;;;;;;;;2109123;28;1182;-91
2021/09/12 06:32:57;;;;;;;;;;;;;;;;;;2109184;28;1353;-91
2021/09/12 06:33:58;;;;;;;;;;;;;;;;;;2108366;28;1186;-91
2021/09/12 06:35:02;;;;;;;;;;;;;;;;;;2092164;28;1301;-91
2021/09/12 06:36:03;;;;;;;;;;;;;;;;;;2100999;28;1296;-90
2021/09/12 06:37:06;;;;;;;;;;;;;;;;;;2117072;28;1307;-90
2021/09/12 06:38:06;;;;;;;;;;;;;;;;;;2108862;28;1348;-91
2021/09/12 06:39:10;;;;;;;;;;;;;;;;;;2100461;28;1326;-91
2021/09/12 06:40:12;;;;;;;;;;;;;;;;;;2108919;28;1457;-92
2021/09/12 06:41:14;;;;;;;;;;;;;;;;;;2117156;28;1453;-91
2021/09/12 06:42:15;;;;;;;;;;;;;;;;;;2108280;28;1285;-92
2021/09/12 06:43:17;;;;;;;;;;;;;;;;;;2109338;28;1252;-90
2021/09/12 06:44:18;;;;;;;;;;;;;;;;;;2108584;28;1319;-90
2021/09/12 06:45:31;;;;;;;;;;;;;;;;;;2108230;28;1914;-90
2021/09/12 06:46:32;;;;;;;;;;;;;;;;;;2106036;28;1235;-90
2021/09/12 06:47:34;;;;;;;;;;;;;;;;;;2100588;28;1313;-90
2021/09/12 06:48:37;;;;;;;;;;;;;;;;;;2092745;28;1291;-93
2021/09/12 06:49:40;;;;;;;;;;;;;;;;;;2100751;28;835;-94
2021/09/12 06:50:45;;;;;;;;;;;;;;;;;;2109079;28;1441;-94
2021/09/12 06:51:47;;;;;;;;;;;;;;;;;;2100650;28;1272;-93
2021/09/12 06:52:48;;;;;;;;;;;;;;;;;;2108646;28;1237;-95
2021/09/12 06:53:54;;;;;;;;;;;;;;;;;;2108549;28;1246;-92
2021/09/12 06:54:56;;;;;;;;;;;;;;;;;;2092623;28;1292;-91
2021/09/12 06:55:58;;;;;;;;;;;;;;;;;;2101027;28;838;-92
2021/09/12 06:57:01;;;;;;;;;;;;;;;;;;2100870;28;1339;-92
2021/09/12 06:58:03;;;;;;;;;;;;;;;;;;2100476;28;1342;-92
2021/09/12 06:59:03;;;;;;;;;;;;;;;;;;2118077;28;1225;-92
2021/09/12 07:00:07;;;;;;;;;;;;;;;;;;2116092;28;1526;-93
2021/09/12 07:01:07;;;;;;;;;;;;;;;;;;2084471;28;1280;-93
2021/09/12 07:02:12;;;;;;;;;;;;;;;;;;2092009;28;1279;-92
2021/09/12 07:03:15;;;;;;;;;;;;;;;;;;2108709;28;1236;-92
2021/09/12 07:04:19;;;;;;;;;;;;;;;;;;2099628;28;1232;-93
2021/09/12 07:05:21;;;;;;;;;;;;;;;;;;2100096;28;1216;-92
2021/09/12 07:06:23;;;;;;;;;;;;;;;;;;2108406;28;1969;-93
2021/09/12 07:07:28;;;;;;;;;;;;;;;;;;2095782;28;1389;-92
2021/09/12 07:08:29;;;;;;;;;;;;;;;;;;2092715;28;974;-92
2021/09/12 07:09:31;;;;;;;;;;;;;;;;;;2092024;28;1365;-93
2021/09/12 07:10:32;;;;;;;;;;;;;;;;;;2099053;28;1491;-93